createdAt,value
2022-11-06T08:31:30.941Z,10.15
2022-11-06T08:36:49.532Z,10.13
2022-11-06T08:41:53.370Z,9.90
2022-11-06T08:46:58.222Z,9.82
2022-11-06T08:52:01.691Z,10.18
2022-11-06T08:57:07.286Z,9.80
2022-11-06T09:02:41.268Z,9.85
2022-11-06T09:07:46.789Z,10.38
2022-11-06T09:12:50.408Z,9.52
2022-11-06T09:17:54.063Z,9.38
2022-11-06T09:23:03.400Z,9.63
2022-11-06T09:28:07.213Z,8.82
2022-11-06T09:33:20.533Z,8.82
2022-11-06T09:38:26.372Z,9.00
2022-11-06T09:49:17.723Z,8.75
2022-11-06T09:54:27.641Z,9.23
2022-11-06T09:59:37.316Z,8.32
2022-11-06T10:04:49.939Z,7.78
2022-11-06T10:10:47.156Z,8.35
2022-11-06T10:15:57.894Z,8.77
2022-11-06T10:26:46.630Z,7.47
2022-11-06T10:44:24.921Z,7.10
2022-11-06T10:49:38.941Z,7.30
2022-11-06T10:55:04.390Z,6.70
2022-11-06T11:00:13.625Z,7.10
2022-11-06T11:05:20.114Z,6.53
2022-11-06T11:10:30.075Z,6.57
2022-11-06T11:16:03.990Z,6.47
2022-11-06T11:21:23.189Z,6.60
2022-11-06T11:26:30.857Z,5.72
2022-11-06T11:37:28.965Z,6.70
2022-11-06T11:48:28.433Z,7.72
2022-11-06T11:53:35.994Z,7.25
2022-11-06T11:58:55.013Z,6.75
2022-11-06T12:04:14.177Z,6.38
2022-11-06T12:09:17.934Z,5.88
2022-11-06T12:14:43.037Z,5.45
2022-11-06T12:20:20.438Z,5.88
2022-11-06T12:25:30.538Z,6.18
2022-11-06T12:30:39.321Z,5.72
2022-11-06T12:35:50.240Z,5.00
2022-11-06T12:40:59.833Z,4.95
2022-11-06T12:46:25.648Z,4.40
2022-11-06T12:51:42.780Z,4.40
2022-11-06T12:57:14.148Z,4.15
2022-11-06T13:03:01.242Z,5.13
2022-11-06T13:08:30.160Z,5.03
2022-11-06T13:19:21.262Z,4.75
2022-11-06T13:24:37.831Z,4.70
2022-11-06T13:29:45.922Z,4.55
2022-11-06T13:34:54.116Z,6.07
2022-11-06T13:40:06.844Z,4.85
2022-11-06T13:45:15.798Z,5.53
2022-11-06T13:50:29.903Z,4.20
2022-11-06T13:55:54.731Z,3.57
2022-11-06T14:01:07.468Z,3.75
2022-11-06T14:06:16.447Z,3.78
2022-11-06T14:11:27.488Z,4.57
2022-11-06T14:16:43.421Z,4.28
2022-11-06T14:22:03.904Z,4.80
2022-11-06T14:27:13.977Z,4.10
2022-11-06T14:38:44.736Z,9.75
2022-11-06T14:50:52.680Z,4.60
2022-11-06T14:56:48.707Z,4.03
2022-11-06T15:02:07.147Z,3.88
2022-11-06T15:08:03.151Z,4.25
2022-11-06T15:13:29.004Z,4.15
2022-11-06T15:18:50.293Z,4.45
2022-11-06T15:24:24.118Z,5.18
2022-11-06T15:36:02.702Z,20.45
2022-11-06T15:47:51.413Z,8.00
2022-11-06T15:53:22.026Z,8.68
2022-11-06T16:04:18.887Z,18.02
2022-11-06T16:09:26.056Z,11.40
2022-11-06T16:14:29.725Z,9.40
2022-11-06T16:19:41.665Z,13.35
2022-11-06T16:25:09.894Z,8.45
2022-11-06T16:30:35.074Z,7.63
2022-11-06T16:36:04.633Z,8.13
2022-11-06T16:41:46.644Z,8.20
2022-11-06T16:47:41.547Z,19.02
2022-11-06T16:53:02.557Z,9.55
2022-11-06T17:23:01.758Z,9.95
2022-11-06T17:28:06.007Z,11.23
2022-11-06T17:33:11.297Z,10.60
2022-11-06T17:38:15.654Z,10.00
2022-11-06T17:43:19.284Z,8.33
2022-11-06T17:54:03.722Z,7.88
2022-11-06T17:59:16.469Z,11.60
2022-11-06T18:10:44.030Z,10.57
2022-11-06T18:16:22.627Z,8.80
2022-11-06T18:21:28.563Z,9.88
2022-11-06T18:26:46.636Z,11.52
2022-11-06T18:31:51.313Z,9.38
2022-11-06T18:37:04.904Z,10.48
2022-11-06T18:42:09.223Z,10.20
2022-11-06T18:47:13.015Z,13.87
2022-11-06T18:52:44.450Z,11.82
2022-11-06T18:57:44.132Z,11.20
2022-11-06T19:02:49.039Z,11.95
2022-11-06T19:08:00.017Z,10.15
2022-11-06T19:13:04.350Z,9.77
2022-11-06T19:25:10.929Z,11.85
2022-11-06T19:30:44.627Z,11.60
2022-11-06T19:49:05.604Z,13.45
2022-11-06T20:07:05.570Z,13.00
2022-11-06T20:12:24.731Z,13.60
2022-11-06T20:22:58.642Z,13.23
2022-11-06T20:28:08.937Z,14.60
2022-11-06T20:33:17.826Z,14.75
2022-11-06T20:38:29.041Z,15.43
2022-11-06T20:49:15.959Z,15.35
2022-11-06T20:54:47.530Z,14.95
2022-11-06T21:05:26.868Z,15.95
2022-11-06T21:10:33.502Z,15.20
2022-11-06T21:15:56.470Z,15.30
2022-11-06T21:21:25.375Z,15.68
2022-11-06T21:26:56.742Z,15.57
2022-11-06T21:32:38.482Z,16.30
2022-11-06T21:37:57.644Z,16.00
2022-11-06T21:43:03.203Z,16.23
2022-11-06T21:48:14.850Z,16.90
2022-11-06T21:53:52.720Z,16.60
2022-11-06T21:59:45.106Z,16.02
2022-11-06T22:10:30.341Z,16.35
2022-11-06T22:15:34.636Z,17.45
2022-11-06T22:20:48.804Z,17.00
2022-11-06T22:31:32.913Z,17.90
2022-11-06T22:42:37.771Z,17.55
2022-11-06T22:53:18.074Z,17.45
2022-11-06T22:58:22.201Z,17.67
